sensor_id;sensor_type;location;lat;lon;timestamp;temperature;humidity
12839;DHT22;6486;51.034;5.262;2023-02-28T00:01:25;2.50;59.30
12839;DHT22;6486;51.034;5.262;2023-02-28T00:03:51;2.50;59.30
12839;DHT22;6486;51.034;5.262;2023-02-28T00:06:17;2.50;59.40
12839;DHT22;6486;51.034;5.262;2023-02-28T00:08:42;2.50;59.50
12839;DHT22;6486;51.034;5.262;2023-02-28T00:11:10;2.50;59.50
12839;DHT22;6486;51.034;5.262;2023-02-28T00:13:38;2.50;59.60
12839;DHT22;6486;51.034;5.262;2023-02-28T00:16:07;2.50;59.60
12839;DHT22;6486;51.034;5.262;2023-02-28T00:18:34;2.50;59.60
12839;DHT22;6486;51.034;5.262;2023-02-28T00:21:00;2.50;59.70
12839;DHT22;6486;51.034;5.262;2023-02-28T00:23:27;2.50;59.70
12839;DHT22;6486;51.034;5.262;2023-02-28T00:25:52;2.50;59.70
12839;DHT22;6486;51.034;5.262;2023-02-28T00:28:18;2.50;59.80
12839;DHT22;6486;51.034;5.262;2023-02-28T00:30:44;2.50;59.70
12839;DHT22;6486;51.034;5.262;2023-02-28T00:33:10;2.50;59.80
12839;DHT22;6486;51.034;5.262;2023-02-28T00:35:36;2.50;59.80
12839;DHT22;6486;51.034;5.262;2023-02-28T00:38:01;2.40;59.80
12839;DHT22;6486;51.034;5.262;2023-02-28T00:40:28;2.40;59.90
12839;DHT22;6486;51.034;5.262;2023-02-28T00:42:54;2.40;59.90
12839;DHT22;6486;51.034;5.262;2023-02-28T00:45:19;2.40;59.90
12839;DHT22;6486;51.034;5.262;2023-02-28T00:47:45;2.40;59.90
12839;DHT22;6486;51.034;5.262;2023-02-28T00:50:12;2.40;60.00
12839;DHT22;6486;51.034;5.262;2023-02-28T00:52:37;2.40;59.90
12839;DHT22;6486;51.034;5.262;2023-02-28T00:55:03;2.40;60.00
12839;DHT22;6486;51.034;5.262;2023-02-28T00:57:29;2.40;60.00
12839;DHT22;6486;51.034;5.262;2023-02-28T00:59:55;2.40;60.10
12839;DHT22;6486;51.034;5.262;2023-02-28T01:02:21;2.30;60.00
12839;DHT22;6486;51.034;5.262;2023-02-28T01:04:47;2.30;60.00
12839;DHT22;6486;51.034;5.262;2023-02-28T01:07:13;2.30;60.00
12839;DHT22;6486;51.034;5.262;2023-02-28T01:09:40;2.30;59.90
12839;DHT22;6486;51.034;5.262;2023-02-28T01:12:07;2.20;59.90
12839;DHT22;6486;51.034;5.262;2023-02-28T01:14:32;2.20;60.20
12839;DHT22;6486;51.034;5.262;2023-02-28T01:16:58;2.10;60.30
12839;DHT22;6486;51.034;5.262;2023-02-28T01:19:24;2.10;60.40
12839;DHT22;6486;51.034;5.262;2023-02-28T01:21:49;2.10;60.50
12839;DHT22;6486;51.034;5.262;2023-02-28T01:24:15;2.00;60.50
12839;DHT22;6486;51.034;5.262;2023-02-28T01:26:41;2.10;60.50
12839;DHT22;6486;51.034;5.262;2023-02-28T01:29:06;2.00;60.50
12839;DHT22;6486;51.034;5.262;2023-02-28T01:31:32;2.00;60.50
12839;DHT22;6486;51.034;5.262;2023-02-28T01:33:58;2.00;60.60
12839;DHT22;6486;51.034;5.262;2023-02-28T01:36:24;2.00;60.60
12839;DHT22;6486;51.034;5.262;2023-02-28T01:38:50;2.00;60.60
12839;DHT22;6486;51.034;5.262;2023-02-28T01:41:25;2.00;60.70
12839;DHT22;6486;51.034;5.262;2023-02-28T01:46:20;2.00;60.80
12839;DHT22;6486;51.034;5.262;2023-02-28T01:48:54;1.90;60.80
12839;DHT22;6486;51.034;5.262;2023-02-28T01:51:46;1.90;60.80
12839;DHT22;6486;51.034;5.262;2023-02-28T01:54:15;1.90;60.80
12839;DHT22;6486;51.034;5.262;2023-02-28T01:57:01;1.90;60.80
12839;DHT22;6486;51.034;5.262;2023-02-28T01:59:39;1.90;60.90
12839;DHT22;6486;51.034;5.262;2023-02-28T02:02:12;1.80;60.80
12839;DHT22;6486;51.034;5.262;2023-02-28T02:04:41;1.80;60.90
12839;DHT22;6486;51.034;5.262;2023-02-28T02:07:12;1.80;61.00
12839;DHT22;6486;51.034;5.262;2023-02-28T02:09:38;1.80;61.00
12839;DHT22;6486;51.034;5.262;2023-02-28T02:12:12;1.80;61.00
12839;DHT22;6486;51.034;5.262;2023-02-28T02:15:04;1.80;61.00
12839;DHT22;6486;51.034;5.262;2023-02-28T02:17:41;1.80;61.00
12839;DHT22;6486;51.034;5.262;2023-02-28T02:23:39;1.80;61.10
12839;DHT22;6486;51.034;5.262;2023-02-28T02:31:53;1.80;61.20
12839;DHT22;6486;51.034;5.262;2023-02-28T02:39:58;1.70;61.30
12839;DHT22;6486;51.034;5.262;2023-02-28T02:42:31;1.70;61.50
12839;DHT22;6486;51.034;5.262;2023-02-28T02:45:13;1.70;61.50
12839;DHT22;6486;51.034;5.262;2023-02-28T02:47:43;1.60;61.40
12839;DHT22;6486;51.034;5.262;2023-02-28T02:50:14;1.60;61.50
12839;DHT22;6486;51.034;5.262;2023-02-28T02:52:46;1.60;61.70
12839;DHT22;6486;51.034;5.262;2023-02-28T02:55:14;1.60;61.70
12839;DHT22;6486;51.034;5.262;2023-02-28T02:58:02;1.60;61.70
12839;DHT22;6486;51.034;5.262;2023-02-28T03:00:37;1.50;61.60
12839;DHT22;6486;51.034;5.262;2023-02-28T03:03:04;1.50;61.60
12839;DHT22;6486;51.034;5.262;2023-02-28T03:05:35;1.50;61.60
12839;DHT22;6486;51.034;5.262;2023-02-28T03:08:05;1.50;61.60
12839;DHT22;6486;51.034;5.262;2023-02-28T03:10:38;1.40;61.50
12839;DHT22;6486;51.034;5.262;2023-02-28T03:13:27;1.30;61.70
12839;DHT22;6486;51.034;5.262;2023-02-28T03:24:14;1.30;62.70
12839;DHT22;6486;51.034;5.262;2023-02-28T03:26:48;1.30;62.10
12839;DHT22;6486;51.034;5.262;2023-02-28T03:29:22;1.30;62.20
12839;DHT22;6486;51.034;5.262;2023-02-28T03:32:02;1.20;62.20
12839;DHT22;6486;51.034;5.262;2023-02-28T03:34:34;1.30;62.30
12839;DHT22;6486;51.034;5.262;2023-02-28T03:37:08;1.20;62.20
12839;DHT22;6486;51.034;5.262;2023-02-28T03:39:41;1.30;63.00
12839;DHT22;6486;51.034;5.262;2023-02-28T03:42:29;1.30;62.40
12839;DHT22;6486;51.034;5.262;2023-02-28T03:45:02;1.30;62.40
12839;DHT22;6486;51.034;5.262;2023-02-28T03:47:39;1.30;62.50
12839;DHT22;6486;51.034;5.262;2023-02-28T03:50:10;1.30;62.50
12839;DHT22;6486;51.034;5.262;2023-02-28T03:52:44;1.30;62.40
12839;DHT22;6486;51.034;5.262;2023-02-28T03:55:12;1.40;62.60
12839;DHT22;6486;51.034;5.262;2023-02-28T03:57:51;1.40;62.60
12839;DHT22;6486;51.034;5.262;2023-02-28T04:00:21;1.40;62.60
12839;DHT22;6486;51.034;5.262;2023-02-28T04:02:50;1.40;62.60
12839;DHT22;6486;51.034;5.262;2023-02-28T04:05:19;1.40;62.60
12839;DHT22;6486;51.034;5.262;2023-02-28T04:07:44;1.50;62.80
12839;DHT22;6486;51.034;5.262;2023-02-28T04:10:11;1.40;62.80
12839;DHT22;6486;51.034;5.262;2023-02-28T04:12:38;1.50;63.00
12839;DHT22;6486;51.034;5.262;2023-02-28T04:15:04;1.50;63.00
12839;DHT22;6486;51.034;5.262;2023-02-28T04:17:30;1.50;63.00
12839;DHT22;6486;51.034;5.262;2023-02-28T04:19:56;1.50;63.10
12839;DHT22;6486;51.034;5.262;2023-02-28T04:22:23;1.60;63.20
12839;DHT22;6486;51.034;5.262;2023-02-28T04:24:51;1.60;63.90
12839;DHT22;6486;51.034;5.262;2023-02-28T04:27:19;1.60;63.40
12839;DHT22;6486;51.034;5.262;2023-02-28T04:29:45;1.60;63.50
12839;DHT22;6486;51.034;5.262;2023-02-28T04:32:11;1.60;63.40
12839;DHT22;6486;51.034;5.262;2023-02-28T04:34:36;1.70;63.40
12839;DHT22;6486;51.034;5.262;2023-02-28T04:37:02;1.70;63.40
12839;DHT22;6486;51.034;5.262;2023-02-28T04:39:28;1.70;63.30
12839;DHT22;6486;51.034;5.262;2023-02-28T04:41:55;1.80;63.40
12839;DHT22;6486;51.034;5.262;2023-02-28T04:44:21;1.80;64.10
12839;DHT22;6486;51.034;5.262;2023-02-28T04:46:48;1.70;63.30
12839;DHT22;6486;51.034;5.262;2023-02-28T04:49:14;1.70;63.40
12839;DHT22;6486;51.034;5.262;2023-02-28T04:51:40;1.70;63.40
12839;DHT22;6486;51.034;5.262;2023-02-28T04:54:06;1.70;63.30
12839;DHT22;6486;51.034;5.262;2023-02-28T04:56:32;1.70;63.30
12839;DHT22;6486;51.034;5.262;2023-02-28T04:58:58;1.70;63.30
12839;DHT22;6486;51.034;5.262;2023-02-28T05:01:31;1.70;63.30
12839;DHT22;6486;51.034;5.262;2023-02-28T05:03:59;1.70;63.30
12839;DHT22;6486;51.034;5.262;2023-02-28T05:06:27;1.70;63.30
12839;DHT22;6486;51.034;5.262;2023-02-28T05:08:53;1.60;63.30
12839;DHT22;6486;51.034;5.262;2023-02-28T05:11:28;1.60;63.20
12839;DHT22;6486;51.034;5.262;2023-02-28T05:14:01;1.60;63.20
12839;DHT22;6486;51.034;5.262;2023-02-28T05:16:27;1.60;63.20
12839;DHT22;6486;51.034;5.262;2023-02-28T05:18:53;1.50;63.20
12839;DHT22;6486;51.034;5.262;2023-02-28T05:21:26;1.50;63.20
12839;DHT22;6486;51.034;5.262;2023-02-28T05:23:52;1.50;63.20
12839;DHT22;6486;51.034;5.262;2023-02-28T05:26:19;1.40;63.10
12839;DHT22;6486;51.034;5.262;2023-02-28T05:28:45;1.40;63.30
12839;DHT22;6486;51.034;5.262;2023-02-28T05:31:11;1.30;63.30
12839;DHT22;6486;51.034;5.262;2023-02-28T05:33:37;1.30;63.40
12839;DHT22;6486;51.034;5.262;2023-02-28T05:36:03;1.30;63.50
12839;DHT22;6486;51.034;5.262;2023-02-28T05:38:29;1.20;63.50
12839;DHT22;6486;51.034;5.262;2023-02-28T05:40:55;1.20;63.50
12839;DHT22;6486;51.034;5.262;2023-02-28T05:43:21;1.20;63.60
12839;DHT22;6486;51.034;5.262;2023-02-28T05:45:47;1.20;63.60
12839;DHT22;6486;51.034;5.262;2023-02-28T05:48:13;1.10;63.50
12839;DHT22;6486;51.034;5.262;2023-02-28T05:50:38;1.10;63.60
12839;DHT22;6486;51.034;5.262;2023-02-28T05:53:04;1.10;63.60
12839;DHT22;6486;51.034;5.262;2023-02-28T05:55:29;1.10;63.60
12839;DHT22;6486;51.034;5.262;2023-02-28T05:57:55;1.10;63.60
12839;DHT22;6486;51.034;5.262;2023-02-28T06:00:22;1.00;63.70
12839;DHT22;6486;51.034;5.262;2023-02-28T06:02:48;1.00;63.60
12839;DHT22;6486;51.034;5.262;2023-02-28T06:05:15;1.00;64.30
12839;DHT22;6486;51.034;5.262;2023-02-28T06:07:42;0.90;63.60
12839;DHT22;6486;51.034;5.262;2023-02-28T06:10:09;0.90;63.60
12839;DHT22;6486;51.034;5.262;2023-02-28T06:12:35;0.90;63.80
12839;DHT22;6486;51.034;5.262;2023-02-28T06:15:01;0.80;63.60
12839;DHT22;6486;51.034;5.262;2023-02-28T06:17:26;0.80;63.70
12839;DHT22;6486;51.034;5.262;2023-02-28T06:19:52;0.80;63.70
12839;DHT22;6486;51.034;5.262;2023-02-28T06:22:18;0.70;63.80
12839;DHT22;6486;51.034;5.262;2023-02-28T06:24:43;0.70;63.80
12839;DHT22;6486;51.034;5.262;2023-02-28T06:27:09;0.70;64.00
12839;DHT22;6486;51.034;5.262;2023-02-28T06:29:35;0.70;64.00
12839;DHT22;6486;51.034;5.262;2023-02-28T06:32:01;0.70;64.10
12839;DHT22;6486;51.034;5.262;2023-02-28T06:34:27;0.60;64.10
12839;DHT22;6486;51.034;5.262;2023-02-28T06:36:53;0.70;64.20
12839;DHT22;6486;51.034;5.262;2023-02-28T06:39:19;0.60;64.10
12839;DHT22;6486;51.034;5.262;2023-02-28T06:41:44;0.70;64.20
12839;DHT22;6486;51.034;5.262;2023-02-28T06:44:16;0.70;64.20
12839;DHT22;6486;51.034;5.262;2023-02-28T06:46:44;0.70;64.20
12839;DHT22;6486;51.034;5.262;2023-02-28T06:49:10;0.70;64.30
12839;DHT22;6486;51.034;5.262;2023-02-28T06:51:38;0.70;64.20
12839;DHT22;6486;51.034;5.262;2023-02-28T06:54:04;0.70;64.20
12839;DHT22;6486;51.034;5.262;2023-02-28T06:56:30;0.70;64.20
12839;DHT22;6486;51.034;5.262;2023-02-28T06:58:56;0.70;64.20
12839;DHT22;6486;51.034;5.262;2023-02-28T07:01:22;0.70;64.20
12839;DHT22;6486;51.034;5.262;2023-02-28T07:03:51;0.80;64.30
12839;DHT22;6486;51.034;5.262;2023-02-28T07:06:19;0.80;64.20
12839;DHT22;6486;51.034;5.262;2023-02-28T07:08:44;0.80;64.20
12839;DHT22;6486;51.034;5.262;2023-02-28T07:11:10;0.90;64.30
12839;DHT22;6486;51.034;5.262;2023-02-28T07:13:36;0.90;64.20
12839;DHT22;6486;51.034;5.262;2023-02-28T07:16:05;1.00;64.30
12839;DHT22;6486;51.034;5.262;2023-02-28T07:18:31;1.00;64.30
12839;DHT22;6486;51.034;5.262;2023-02-28T07:20:57;1.10;64.20
12839;DHT22;6486;51.034;5.262;2023-02-28T07:23:23;1.10;64.20
12839;DHT22;6486;51.034;5.262;2023-02-28T07:25:50;1.20;64.30
12839;DHT22;6486;51.034;5.262;2023-02-28T07:28:16;1.30;64.30
12839;DHT22;6486;51.034;5.262;2023-02-28T07:30:42;1.30;64.20
12839;DHT22;6486;51.034;5.262;2023-02-28T07:33:08;1.40;64.30
12839;DHT22;6486;51.034;5.262;2023-02-28T07:35:34;1.50;64.30
12839;DHT22;6486;51.034;5.262;2023-02-28T07:38:00;1.50;64.20
12839;DHT22;6486;51.034;5.262;2023-02-28T07:40:25;1.60;64.20
12839;DHT22;6486;51.034;5.262;2023-02-28T07:42:51;1.60;64.10
12839;DHT22;6486;51.034;5.262;2023-02-28T07:45:17;1.70;64.10
12839;DHT22;6486;51.034;5.262;2023-02-28T07:47:44;1.80;64.10
12839;DHT22;6486;51.034;5.262;2023-02-28T07:50:12;1.80;64.00
12839;DHT22;6486;51.034;5.262;2023-02-28T07:52:38;1.90;64.00
12839;DHT22;6486;51.034;5.262;2023-02-28T07:55:06;2.00;64.00
12839;DHT22;6486;51.034;5.262;2023-02-28T07:57:32;2.00;63.90
12839;DHT22;6486;51.034;5.262;2023-02-28T07:59:57;2.10;63.80
12839;DHT22;6486;51.034;5.262;2023-02-28T08:02:23;2.20;63.80
12839;DHT22;6486;51.034;5.262;2023-02-28T08:04:48;2.30;63.80
12839;DHT22;6486;51.034;5.262;2023-02-28T08:07:16;2.40;63.70
12839;DHT22;6486;51.034;5.262;2023-02-28T08:09:42;2.50;63.60
12839;DHT22;6486;51.034;5.262;2023-02-28T08:12:09;2.60;63.50
12839;DHT22;6486;51.034;5.262;2023-02-28T08:14:35;2.60;63.40
12839;DHT22;6486;51.034;5.262;2023-02-28T08:17:01;2.70;63.20
12839;DHT22;6486;51.034;5.262;2023-02-28T08:19:27;2.80;63.10
12839;DHT22;6486;51.034;5.262;2023-02-28T08:21:53;2.90;63.10
12839;DHT22;6486;51.034;5.262;2023-02-28T08:24:19;3.00;63.10
12839;DHT22;6486;51.034;5.262;2023-02-28T08:26:44;3.10;63.60
12839;DHT22;6486;51.034;5.262;2023-02-28T08:29:10;3.20;62.80
12839;DHT22;6486;51.034;5.262;2023-02-28T08:31:36;3.30;62.60
12839;DHT22;6486;51.034;5.262;2023-02-28T08:34:19;3.40;62.60
12839;DHT22;6486;51.034;5.262;2023-02-28T08:36:45;3.50;62.20
12839;DHT22;6486;51.034;5.262;2023-02-28T08:39:11;3.60;62.20
12839;DHT22;6486;51.034;5.262;2023-02-28T08:41:37;3.70;62.10
12839;DHT22;6486;51.034;5.262;2023-02-28T08:44:03;3.80;61.90
12839;DHT22;6486;51.034;5.262;2023-02-28T08:46:29;3.90;61.70
12839;DHT22;6486;51.034;5.262;2023-02-28T08:48:56;4.00;61.40
12839;DHT22;6486;51.034;5.262;2023-02-28T08:51:24;4.10;61.10
12839;DHT22;6486;51.034;5.262;2023-02-28T08:53:58;4.20;60.90
12839;DHT22;6486;51.034;5.262;2023-02-28T08:56:25;4.30;60.70
12839;DHT22;6486;51.034;5.262;2023-02-28T08:58:51;4.30;60.40
12839;DHT22;6486;51.034;5.262;2023-02-28T09:01:19;4.40;60.40
12839;DHT22;6486;51.034;5.262;2023-02-28T09:03:46;4.50;60.10
12839;DHT22;6486;51.034;5.262;2023-02-28T09:06:14;4.60;59.80
12839;DHT22;6486;51.034;5.262;2023-02-28T09:08:40;4.70;59.80
12839;DHT22;6486;51.034;5.262;2023-02-28T09:11:06;4.70;59.40
12839;DHT22;6486;51.034;5.262;2023-02-28T09:13:32;4.80;59.20
12839;DHT22;6486;51.034;5.262;2023-02-28T09:15:59;4.90;59.00
12839;DHT22;6486;51.034;5.262;2023-02-28T09:18:26;5.00;58.10
12839;DHT22;6486;51.034;5.262;2023-02-28T09:20:52;5.00;57.90
12839;DHT22;6486;51.034;5.262;2023-02-28T09:23:18;5.10;57.50
12839;DHT22;6486;51.034;5.262;2023-02-28T09:25:49;5.20;57.40
12839;DHT22;6486;51.034;5.262;2023-02-28T09:28:15;5.30;57.30
12839;DHT22;6486;51.034;5.262;2023-02-28T09:30:44;5.40;57.80
12839;DHT22;6486;51.034;5.262;2023-02-28T09:33:10;5.50;56.90
12839;DHT22;6486;51.034;5.262;2023-02-28T09:35:36;5.50;56.10
12839;DHT22;6486;51.034;5.262;2023-02-28T09:38:03;5.50;55.60
12839;DHT22;6486;51.034;5.262;2023-02-28T09:40:30;5.60;55.00
12839;DHT22;6486;51.034;5.262;2023-02-28T09:42:57;5.60;55.10
12839;DHT22;6486;51.034;5.262;2023-02-28T09:45:39;5.70;54.70
12839;DHT22;6486;51.034;5.262;2023-02-28T09:48:16;5.70;54.60
12839;DHT22;6486;51.034;5.262;2023-02-28T09:50:56;5.80;55.30
12839;DHT22;6486;51.034;5.262;2023-02-28T09:53:30;5.90;54.60
12839;DHT22;6486;51.034;5.262;2023-02-28T09:56:03;6.00;54.30
12839;DHT22;6486;51.034;5.262;2023-02-28T09:58:40;6.10;54.30
12839;DHT22;6486;51.034;5.262;2023-02-28T10:03:57;6.10;53.10
12839;DHT22;6486;51.034;5.262;2023-02-28T10:06:36;6.20;53.70
12839;DHT22;6486;51.034;5.262;2023-02-28T10:09:22;6.20;52.70
12839;DHT22;6486;51.034;5.262;2023-02-28T10:11:52;6.30;52.50
12839;DHT22;6486;51.034;5.262;2023-02-28T10:14:20;6.40;52.60
12839;DHT22;6486;51.034;5.262;2023-02-28T10:22:20;6.60;51.50
12839;DHT22;6486;51.034;5.262;2023-02-28T10:24:52;6.70;51.30
12839;DHT22;6486;51.034;5.262;2023-02-28T10:27:20;6.80;51.20
12839;DHT22;6486;51.034;5.262;2023-02-28T10:29:49;6.90;50.30
12839;DHT22;6486;51.034;5.262;2023-02-28T10:32:40;6.90;49.30
12839;DHT22;6486;51.034;5.262;2023-02-28T10:35:34;7.00;49.40
12839;DHT22;6486;51.034;5.262;2023-02-28T10:38:01;7.00;48.00
12839;DHT22;6486;51.034;5.262;2023-02-28T10:40:36;7.00;48.10
12839;DHT22;6486;51.034;5.262;2023-02-28T10:45:38;7.20;48.40
12839;DHT22;6486;51.034;5.262;2023-02-28T10:58:26;7.50;47.10
12839;DHT22;6486;51.034;5.262;2023-02-28T11:00:52;7.60;47.10
12839;DHT22;6486;51.034;5.262;2023-02-28T11:03:32;7.70;47.00
12839;DHT22;6486;51.034;5.262;2023-02-28T11:06:03;7.80;46.40
12839;DHT22;6486;51.034;5.262;2023-02-28T11:08:29;7.90;45.90
12839;DHT22;6486;51.034;5.262;2023-02-28T11:10:57;8.00;45.70
12839;DHT22;6486;51.034;5.262;2023-02-28T11:13:33;8.10;45.70
12839;DHT22;6486;51.034;5.262;2023-02-28T11:16:04;8.20;45.10
12839;DHT22;6486;51.034;5.262;2023-02-28T11:18:52;8.20;44.70
12839;DHT22;6486;51.034;5.262;2023-02-28T11:21:31;8.30;44.70
12839;DHT22;6486;51.034;5.262;2023-02-28T11:24:16;8.50;44.90
12839;DHT22;6486;51.034;5.262;2023-02-28T11:26:48;8.50;45.00
12839;DHT22;6486;51.034;5.262;2023-02-28T11:32:19;8.70;44.20
12839;DHT22;6486;51.034;5.262;2023-02-28T11:34:46;8.80;43.80
12839;DHT22;6486;51.034;5.262;2023-02-28T11:37:18;8.80;43.40
12839;DHT22;6486;51.034;5.262;2023-02-28T11:39:45;8.90;43.10
12839;DHT22;6486;51.034;5.262;2023-02-28T11:42:31;8.90;42.90
12839;DHT22;6486;51.034;5.262;2023-02-28T11:45:22;8.90;42.40
12839;DHT22;6486;51.034;5.262;2023-02-28T11:47:49;9.00;42.40
12839;DHT22;6486;51.034;5.262;2023-02-28T11:55:32;9.10;41.70
12839;DHT22;6486;51.034;5.262;2023-02-28T12:01:00;9.30;42.50
12839;DHT22;6486;51.034;5.262;2023-02-28T12:03:43;9.30;42.30
12839;DHT22;6486;51.034;5.262;2023-02-28T12:06:33;9.40;42.30
12839;DHT22;6486;51.034;5.262;2023-02-28T12:11:48;9.50;41.90
12839;DHT22;6486;51.034;5.262;2023-02-28T12:17:19;9.50;40.60
12839;DHT22;6486;51.034;5.262;2023-02-28T12:27:45;9.70;40.70
12839;DHT22;6486;51.034;5.262;2023-02-28T12:30:33;9.70;39.80
12839;DHT22;6486;51.034;5.262;2023-02-28T12:33:24;9.70;40.10
12839;DHT22;6486;51.034;5.262;2023-02-28T12:35:56;9.80;40.50
12839;DHT22;6486;51.034;5.262;2023-02-28T12:38:27;9.80;40.10
12839;DHT22;6486;51.034;5.262;2023-02-28T12:41:34;9.80;40.00
12839;DHT22;6486;51.034;5.262;2023-02-28T12:44:00;9.80;40.50
12839;DHT22;6486;51.034;5.262;2023-02-28T12:46:33;9.90;40.30
12839;DHT22;6486;51.034;5.262;2023-02-28T12:49:15;9.80;40.50
12839;DHT22;6486;51.034;5.262;2023-02-28T12:51:43;9.80;40.70
12839;DHT22;6486;51.034;5.262;2023-02-28T12:57:06;9.90;40.50
12839;DHT22;6486;51.034;5.262;2023-02-28T12:59:46;9.90;39.90
12839;DHT22;6486;51.034;5.262;2023-02-28T13:10:58;9.80;39.40
12839;DHT22;6486;51.034;5.262;2023-02-28T13:13:29;9.80;39.60
12839;DHT22;6486;51.034;5.262;2023-02-28T13:18:42;9.70;39.60
12839;DHT22;6486;51.034;5.262;2023-02-28T13:21:22;9.70;39.80
12839;DHT22;6486;51.034;5.262;2023-02-28T13:24:03;9.60;40.00
12839;DHT22;6486;51.034;5.262;2023-02-28T13:34:40;9.70;39.50
12839;DHT22;6486;51.034;5.262;2023-02-28T13:47:40;9.70;40.00
12839;DHT22;6486;51.034;5.262;2023-02-28T13:50:37;9.70;39.70
12839;DHT22;6486;51.034;5.262;2023-02-28T14:06:37;9.70;39.30
12839;DHT22;6486;51.034;5.262;2023-02-28T14:11:43;9.80;39.50
12839;DHT22;6486;51.034;5.262;2023-02-28T14:14:54;9.80;39.40
12839;DHT22;6486;51.034;5.262;2023-02-28T14:16:55;9.80;39.10
12839;DHT22;6486;51.034;5.262;2023-02-28T14:19:27;9.80;39.20
12839;DHT22;6486;51.034;5.262;2023-02-28T14:25:04;9.80;39.20
12839;DHT22;6486;51.034;5.262;2023-02-28T14:39:24;10.00;38.40
12839;DHT22;6486;51.034;5.262;2023-02-28T14:41:50;10.00;38.30
12839;DHT22;6486;51.034;5.262;2023-02-28T14:44:22;10.00;38.30
12839;DHT22;6486;51.034;5.262;2023-02-28T14:46:54;10.00;38.50
12839;DHT22;6486;51.034;5.262;2023-02-28T14:52:07;10.30;39.30
12839;DHT22;6486;51.034;5.262;2023-02-28T14:54:38;10.50;39.20
12839;DHT22;6486;51.034;5.262;2023-02-28T14:57:05;10.70;39.20
12839;DHT22;6486;51.034;5.262;2023-02-28T14:59:33;10.90;39.20
12839;DHT22;6486;51.034;5.262;2023-02-28T15:02:22;11.20;39.50
12839;DHT22;6486;51.034;5.262;2023-02-28T15:04:59;11.60;38.90
12839;DHT22;6486;51.034;5.262;2023-02-28T15:07:26;12.00;38.00
12839;DHT22;6486;51.034;5.262;2023-02-28T15:12:37;12.80;37.90
12839;DHT22;6486;51.034;5.262;2023-02-28T15:15:05;13.20;37.60
12839;DHT22;6486;51.034;5.262;2023-02-28T15:17:32;13.70;37.20
12839;DHT22;6486;51.034;5.262;2023-02-28T15:19:57;14.00;37.00
12839;DHT22;6486;51.034;5.262;2023-02-28T15:22:35;14.40;37.10
12839;DHT22;6486;51.034;5.262;2023-02-28T15:25:04;14.80;36.70
12839;DHT22;6486;51.034;5.262;2023-02-28T15:27:33;15.10;36.40
12839;DHT22;6486;51.034;5.262;2023-02-28T15:30:06;15.60;35.80
12839;DHT22;6486;51.034;5.262;2023-02-28T15:32:35;16.10;35.10
12839;DHT22;6486;51.034;5.262;2023-02-28T15:35:27;16.80;34.60
12839;DHT22;6486;51.034;5.262;2023-02-28T15:38:16;17.70;33.50
12839;DHT22;6486;51.034;5.262;2023-02-28T15:40:43;18.60;32.90
12839;DHT22;6486;51.034;5.262;2023-02-28T15:43:16;19.80;31.50
12839;DHT22;6486;51.034;5.262;2023-02-28T15:48:22;20.90;29.10
12839;DHT22;6486;51.034;5.262;2023-02-28T15:53:36;18.10;29.30
12839;DHT22;6486;51.034;5.262;2023-02-28T15:56:31;16.70;29.50
12839;DHT22;6486;51.034;5.262;2023-02-28T15:59:03;15.50;29.60
12839;DHT22;6486;51.034;5.262;2023-02-28T16:01:33;14.40;29.80
12839;DHT22;6486;51.034;5.262;2023-02-28T16:04:05;13.40;30.30
12839;DHT22;6486;51.034;5.262;2023-02-28T16:06:41;12.50;30.60
12839;DHT22;6486;51.034;5.262;2023-02-28T16:09:11;11.70;31.30
12839;DHT22;6486;51.034;5.262;2023-02-28T16:11:41;11.10;32.10
12839;DHT22;6486;51.034;5.262;2023-02-28T16:14:13;10.70;32.90
12839;DHT22;6486;51.034;5.262;2023-02-28T16:16:46;10.30;33.30
12839;DHT22;6486;51.034;5.262;2023-02-28T16:19:12;10.20;33.60
12839;DHT22;6486;51.034;5.262;2023-02-28T16:21:37;9.90;34.70
12839;DHT22;6486;51.034;5.262;2023-02-28T16:24:03;9.70;35.00
12839;DHT22;6486;51.034;5.262;2023-02-28T16:26:29;9.40;35.30
12839;DHT22;6486;51.034;5.262;2023-02-28T16:28:55;9.20;35.50
12839;DHT22;6486;51.034;5.262;2023-02-28T16:31:20;9.00;35.80
12839;DHT22;6486;51.034;5.262;2023-02-28T16:33:47;8.80;36.10
12839;DHT22;6486;51.034;5.262;2023-02-28T16:36:18;8.60;36.20
12839;DHT22;6486;51.034;5.262;2023-02-28T16:38:44;8.50;36.50
12839;DHT22;6486;51.034;5.262;2023-02-28T16:41:18;8.40;36.80
12839;DHT22;6486;51.034;5.262;2023-02-28T16:43:46;8.30;37.00
12839;DHT22;6486;51.034;5.262;2023-02-28T16:46:13;8.20;37.20
12839;DHT22;6486;51.034;5.262;2023-02-28T16:48:39;8.10;37.40
12839;DHT22;6486;51.034;5.262;2023-02-28T16:51:13;8.00;37.60
12839;DHT22;6486;51.034;5.262;2023-02-28T16:53:38;7.90;37.80
12839;DHT22;6486;51.034;5.262;2023-02-28T16:56:04;7.80;38.00
12839;DHT22;6486;51.034;5.262;2023-02-28T16:58:32;7.80;38.10
12839;DHT22;6486;51.034;5.262;2023-02-28T17:01:01;7.70;38.20
12839;DHT22;6486;51.034;5.262;2023-02-28T17:03:28;7.70;38.50
12839;DHT22;6486;51.034;5.262;2023-02-28T17:05:55;7.60;38.60
12839;DHT22;6486;51.034;5.262;2023-02-28T17:08:20;7.50;38.80
12839;DHT22;6486;51.034;5.262;2023-02-28T17:10:46;7.50;39.10
12839;DHT22;6486;51.034;5.262;2023-02-28T17:13:12;7.40;39.40
12839;DHT22;6486;51.034;5.262;2023-02-28T17:15:38;7.40;39.50
12839;DHT22;6486;51.034;5.262;2023-02-28T17:18:05;7.30;39.70
12839;DHT22;6486;51.034;5.262;2023-02-28T17:20:31;7.30;39.80
12839;DHT22;6486;51.034;5.262;2023-02-28T17:22:57;7.30;39.90
12839;DHT22;6486;51.034;5.262;2023-02-28T17:25:23;7.20;39.90
12839;DHT22;6486;51.034;5.262;2023-02-28T17:27:49;7.10;40.00
12839;DHT22;6486;51.034;5.262;2023-02-28T17:30:23;7.00;40.00
12839;DHT22;6486;51.034;5.262;2023-02-28T17:32:49;6.90;40.10
12839;DHT22;6486;51.034;5.262;2023-02-28T17:35:15;6.80;40.20
12839;DHT22;6486;51.034;5.262;2023-02-28T17:37:41;6.70;40.40
12839;DHT22;6486;51.034;5.262;2023-02-28T17:40:27;6.60;40.60
12839;DHT22;6486;51.034;5.262;2023-02-28T17:42:52;6.50;40.80
12839;DHT22;6486;51.034;5.262;2023-02-28T17:45:20;6.50;40.90
12839;DHT22;6486;51.034;5.262;2023-02-28T17:47:48;6.40;41.00
12839;DHT22;6486;51.034;5.262;2023-02-28T17:50:20;6.30;41.10
12839;DHT22;6486;51.034;5.262;2023-02-28T17:52:46;6.30;41.30
12839;DHT22;6486;51.034;5.262;2023-02-28T17:55:12;6.20;41.50
12839;DHT22;6486;51.034;5.262;2023-02-28T17:57:39;6.10;41.70
12839;DHT22;6486;51.034;5.262;2023-02-28T18:00:26;6.00;41.90
12839;DHT22;6486;51.034;5.262;2023-02-28T18:02:52;6.00;42.00
12839;DHT22;6486;51.034;5.262;2023-02-28T18:05:17;6.00;42.20
12839;DHT22;6486;51.034;5.262;2023-02-28T18:07:43;5.90;42.20
12839;DHT22;6486;51.034;5.262;2023-02-28T18:10:20;5.90;42.40
12839;DHT22;6486;51.034;5.262;2023-02-28T18:12:47;5.80;42.60
12839;DHT22;6486;51.034;5.262;2023-02-28T18:15:14;5.70;42.70
12839;DHT22;6486;51.034;5.262;2023-02-28T18:17:41;5.60;42.90
12839;DHT22;6486;51.034;5.262;2023-02-28T18:20:09;5.60;43.10
12839;DHT22;6486;51.034;5.262;2023-02-28T18:22:36;5.50;43.20
12839;DHT22;6486;51.034;5.262;2023-02-28T18:25:04;5.40;44.00
12839;DHT22;6486;51.034;5.262;2023-02-28T18:27:30;5.40;43.50
12839;DHT22;6486;51.034;5.262;2023-02-28T18:29:55;5.40;43.60
12839;DHT22;6486;51.034;5.262;2023-02-28T18:32:21;5.30;43.50
12839;DHT22;6486;51.034;5.262;2023-02-28T18:34:47;5.30;43.60
12839;DHT22;6486;51.034;5.262;2023-02-28T18:37:13;5.20;43.50
12839;DHT22;6486;51.034;5.262;2023-02-28T18:39:40;5.10;43.60
12839;DHT22;6486;51.034;5.262;2023-02-28T18:42:06;5.10;43.70